<?xml version="1.0" encoding="UTF-8" standalone="no" ?>
<gpx xmlns="http://www.topografix.com/GPX/1/1" xmlns:xsi="http://www.w3.org/2001/XMLSchema-instance" xsi:schemaLocation="http://www.topografix.com/GPX/1/1 http://www.topografix.com/GPX/1/1/gpx.xsd" version="1.1" creator="VisuGPX - https://www.visugpx.com">
  <metadata>
    <name>2019-06-20-46-Cénac</name>
    <desc><![CDATA[Le parcours de 12km pour 270m de dénivelé, sympathique en suivant tour à tour des sentiers, des chemins sur le plateau ou en forêt, et un peu de route]]></desc>
  </metadata>
  <trk>
    <name><![CDATA[CENAC BOB  12:37:57]]></name>
    <trkseg>
      <trkpt lat="44.44281" lon="1.24915">
        <ele>295.74</ele>
        <time>2019-06-20T07:05:33Z</time>
      </trkpt>
      <trkpt lat="44.44264" lon="1.24916">
        <ele>296.22</ele>
        <time>2019-06-20T07:06:18Z</time>
      </trkpt>
      <trkpt lat="44.44244" lon="1.24921">
        <ele>294.78</ele>
        <time>2019-06-20T07:06:41Z</time>
      </trkpt>
      <trkpt lat="44.44224" lon="1.24928">
        <ele>293.34</ele>
        <time>2019-06-20T07:07:00Z</time>
      </trkpt>
      <trkpt lat="44.44205" lon="1.24934">
        <ele>291.42</ele>
        <time>2019-06-20T07:07:20Z</time>
      </trkpt>
      <trkpt lat="44.44184" lon="1.2494">
        <ele>290.46</ele>
        <time>2019-06-20T07:07:41Z</time>
      </trkpt>
      <trkpt lat="44.44163" lon="1.24944">
        <ele>290.46</ele>
        <time>2019-06-20T07:08:00Z</time>
      </trkpt>
      <trkpt lat="44.44142" lon="1.24946">
        <ele>292.38</ele>
        <time>2019-06-20T07:08:18Z</time>
      </trkpt>
      <trkpt lat="44.4412" lon="1.24952">
        <ele>293.82</ele>
        <time>2019-06-20T07:08:37Z</time>
      </trkpt>
      <trkpt lat="44.441" lon="1.24954">
        <ele>293.82</ele>
        <time>2019-06-20T07:08:54Z</time>
      </trkpt>
      <trkpt lat="44.4408" lon="1.24959">
        <ele>294.3</ele>
        <time>2019-06-20T07:09:11Z</time>
      </trkpt>
      <trkpt lat="44.4406" lon="1.24964">
        <ele>295.74</ele>
        <time>2019-06-20T07:09:29Z</time>
      </trkpt>
      <trkpt lat="44.44041" lon="1.24967">
        <ele>295.26</ele>
        <time>2019-06-20T07:09:45Z</time>
      </trkpt>
      <trkpt lat="44.44022" lon="1.24971">
        <ele>294.3</ele>
        <time>2019-06-20T07:10:04Z</time>
      </trkpt>
      <trkpt lat="44.44002" lon="1.24976">
        <ele>292.38</ele>
        <time>2019-06-20T07:10:23Z</time>
      </trkpt>
      <trkpt lat="44.43981" lon="1.24982">
        <ele>290.46</ele>
        <time>2019-06-20T07:10:42Z</time>
      </trkpt>
      <trkpt lat="44.43959" lon="1.24984">
        <ele>287.57</ele>
        <time>2019-06-20T07:11:02Z</time>
      </trkpt>
      <trkpt lat="44.43936" lon="1.24989">
        <ele>284.21</ele>
        <time>2019-06-20T07:11:24Z</time>
      </trkpt>
      <trkpt lat="44.43913" lon="1.24998">
        <ele>280.36</ele>
        <time>2019-06-20T07:11:48Z</time>
      </trkpt>
      <trkpt lat="44.43891" lon="1.25009">
        <ele>278.92</ele>
        <time>2019-06-20T07:12:07Z</time>
      </trkpt>
      <trkpt lat="44.4387" lon="1.25019">
        <ele>278.92</ele>
        <time>2019-06-20T07:12:26Z</time>
      </trkpt>
      <trkpt lat="44.43849" lon="1.25006">
        <ele>280.36</ele>
        <time>2019-06-20T07:12:53Z</time>
      </trkpt>
      <trkpt lat="44.43833" lon="1.24977">
        <ele>278.44</ele>
        <time>2019-06-20T07:13:16Z</time>
      </trkpt>
      <trkpt lat="44.43811" lon="1.24946">
        <ele>277.96</ele>
        <time>2019-06-20T07:13:43Z</time>
      </trkpt>
      <trkpt lat="44.43787" lon="1.2494">
        <ele>280.36</ele>
        <time>2019-06-20T07:14:06Z</time>
      </trkpt>
      <trkpt lat="44.43763" lon="1.24953">
        <ele>283.73</ele>
        <time>2019-06-20T07:14:33Z</time>
      </trkpt>
      <trkpt lat="44.43736" lon="1.24954">
        <ele>284.69</ele>
        <time>2019-06-20T07:14:58Z</time>
      </trkpt>
      <trkpt lat="44.43708" lon="1.2494">
        <ele>285.17</ele>
        <time>2019-06-20T07:15:24Z</time>
      </trkpt>
      <trkpt lat="44.43687" lon="1.24923">
        <ele>284.69</ele>
        <time>2019-06-20T07:15:46Z</time>
      </trkpt>
      <trkpt lat="44.43668" lon="1.24904">
        <ele>285.65</ele>
        <time>2019-06-20T07:16:09Z</time>
      </trkpt>
      <trkpt lat="44.43652" lon="1.24893">
        <ele>286.13</ele>
        <time>2019-06-20T07:17:11Z</time>
      </trkpt>
      <trkpt lat="44.43653" lon="1.24918">
        <ele>287.57</ele>
        <time>2019-06-20T07:17:34Z</time>
      </trkpt>
      <trkpt lat="44.43653" lon="1.24949">
        <ele>289.97</ele>
        <time>2019-06-20T07:17:59Z</time>
      </trkpt>
      <trkpt lat="44.43656" lon="1.24984">
        <ele>291.9</ele>
        <time>2019-06-20T07:18:25Z</time>
      </trkpt>
      <trkpt lat="44.43663" lon="1.25016">
        <ele>293.34</ele>
        <time>2019-06-20T07:18:50Z</time>
      </trkpt>
      <trkpt lat="44.43671" lon="1.25046">
        <ele>295.26</ele>
        <time>2019-06-20T07:19:12Z</time>
      </trkpt>
      <trkpt lat="44.43676" lon="1.25078">
        <ele>297.67</ele>
        <time>2019-06-20T07:19:36Z</time>
      </trkpt>
      <trkpt lat="44.43678" lon="1.25107">
        <ele>298.63</ele>
        <time>2019-06-20T07:19:55Z</time>
      </trkpt>
      <trkpt lat="44.43678" lon="1.25137">
        <ele>300.07</ele>
        <time>2019-06-20T07:20:15Z</time>
      </trkpt>
      <trkpt lat="44.43681" lon="1.25167">
        <ele>301.03</ele>
        <time>2019-06-20T07:20:35Z</time>
      </trkpt>
      <trkpt lat="44.43688" lon="1.25194">
        <ele>301.51</ele>
        <time>2019-06-20T07:20:53Z</time>
      </trkpt>
      <trkpt lat="44.43694" lon="1.25223">
        <ele>301.99</ele>
        <time>2019-06-20T07:21:13Z</time>
      </trkpt>
      <trkpt lat="44.43705" lon="1.25253">
        <ele>301.99</ele>
        <time>2019-06-20T07:21:33Z</time>
      </trkpt>
      <trkpt lat="44.43719" lon="1.25279">
        <ele>302.95</ele>
        <time>2019-06-20T07:21:53Z</time>
      </trkpt>
      <trkpt lat="44.43731" lon="1.25307">
        <ele>303.91</ele>
        <time>2019-06-20T07:22:16Z</time>
      </trkpt>
      <trkpt lat="44.43744" lon="1.25338">
        <ele>302.47</ele>
        <time>2019-06-20T07:22:38Z</time>
      </trkpt>
      <trkpt lat="44.43753" lon="1.2537">
        <ele>301.03</ele>
        <time>2019-06-20T07:22:58Z</time>
      </trkpt>
      <trkpt lat="44.43759" lon="1.25405">
        <ele>300.07</ele>
        <time>2019-06-20T07:23:19Z</time>
      </trkpt>
      <trkpt lat="44.43762" lon="1.25439">
        <ele>299.11</ele>
        <time>2019-06-20T07:23:40Z</time>
      </trkpt>
      <trkpt lat="44.43761" lon="1.25472">
        <ele>298.15</ele>
        <time>2019-06-20T07:24:00Z</time>
      </trkpt>
      <trkpt lat="44.43763" lon="1.25503">
        <ele>298.15</ele>
        <time>2019-06-20T07:24:18Z</time>
      </trkpt>
      <trkpt lat="44.43764" lon="1.25535">
        <ele>298.15</ele>
        <time>2019-06-20T07:24:40Z</time>
      </trkpt>
      <trkpt lat="44.43764" lon="1.25571">
        <ele>297.67</ele>
        <time>2019-06-20T07:25:04Z</time>
      </trkpt>
      <trkpt lat="44.43765" lon="1.25607">
        <ele>297.67</ele>
        <time>2019-06-20T07:25:25Z</time>
      </trkpt>
      <trkpt lat="44.43759" lon="1.25638">
        <ele>297.67</ele>
        <time>2019-06-20T07:25:44Z</time>
      </trkpt>
      <trkpt lat="44.43755" lon="1.25669">
        <ele>297.67</ele>
        <time>2019-06-20T07:26:03Z</time>
      </trkpt>
      <trkpt lat="44.43771" lon="1.25662">
        <ele>300.07</ele>
        <time>2019-06-20T07:26:31Z</time>
      </trkpt>
      <trkpt lat="44.43795" lon="1.25656">
        <ele>300.07</ele>
        <time>2019-06-20T07:26:54Z</time>
      </trkpt>
      <trkpt lat="44.43819" lon="1.25661">
        <ele>300.55</ele>
        <time>2019-06-20T07:27:13Z</time>
      </trkpt>
      <trkpt lat="44.4384" lon="1.25668">
        <ele>301.03</ele>
        <time>2019-06-20T07:27:30Z</time>
      </trkpt>
      <trkpt lat="44.43862" lon="1.25669">
        <ele>301.03</ele>
        <time>2019-06-20T07:27:49Z</time>
      </trkpt>
      <trkpt lat="44.4388" lon="1.25649">
        <ele>301.03</ele>
        <time>2019-06-20T07:28:11Z</time>
      </trkpt>
      <trkpt lat="44.43889" lon="1.25627">
        <ele>301.03</ele>
        <time>2019-06-20T07:28:28Z</time>
      </trkpt>
      <trkpt lat="44.439" lon="1.25604">
        <ele>301.51</ele>
        <time>2019-06-20T07:28:46Z</time>
      </trkpt>
      <trkpt lat="44.43919" lon="1.25589">
        <ele>301.51</ele>
        <time>2019-06-20T07:29:04Z</time>
      </trkpt>
      <trkpt lat="44.43939" lon="1.25581">
        <ele>301.51</ele>
        <time>2019-06-20T07:29:22Z</time>
      </trkpt>
      <trkpt lat="44.43962" lon="1.25576">
        <ele>301.51</ele>
        <time>2019-06-20T07:29:40Z</time>
      </trkpt>
      <trkpt lat="44.43985" lon="1.25572">
        <ele>301.99</ele>
        <time>2019-06-20T07:29:59Z</time>
      </trkpt>
      <trkpt lat="44.44006" lon="1.25567">
        <ele>301.99</ele>
        <time>2019-06-20T07:30:16Z</time>
      </trkpt>
      <trkpt lat="44.44027" lon="1.25561">
        <ele>302.47</ele>
        <time>2019-06-20T07:30:35Z</time>
      </trkpt>
      <trkpt lat="44.44046" lon="1.25556">
        <ele>303.43</ele>
        <time>2019-06-20T07:30:51Z</time>
      </trkpt>
      <trkpt lat="44.44065" lon="1.2555">
        <ele>303.43</ele>
        <time>2019-06-20T07:31:10Z</time>
      </trkpt>
      <trkpt lat="44.44088" lon="1.25545">
        <ele>304.39</ele>
        <time>2019-06-20T07:31:31Z</time>
      </trkpt>
      <trkpt lat="44.44096" lon="1.25567">
        <ele>305.36</ele>
        <time>2019-06-20T07:31:51Z</time>
      </trkpt>
      <trkpt lat="44.44085" lon="1.25587">
        <ele>305.84</ele>
        <time>2019-06-20T07:32:07Z</time>
      </trkpt>
      <trkpt lat="44.44079" lon="1.25616">
        <ele>308.24</ele>
        <time>2019-06-20T07:32:30Z</time>
      </trkpt>
      <trkpt lat="44.44083" lon="1.25651">
        <ele>310.16</ele>
        <time>2019-06-20T07:32:55Z</time>
      </trkpt>
      <trkpt lat="44.44085" lon="1.25687">
        <ele>310.64</ele>
        <time>2019-06-20T07:33:17Z</time>
      </trkpt>
      <trkpt lat="44.44085" lon="1.25728">
        <ele>309.2</ele>
        <time>2019-06-20T07:33:42Z</time>
      </trkpt>
      <trkpt lat="44.44083" lon="1.2576">
        <ele>308.24</ele>
        <time>2019-06-20T07:34:02Z</time>
      </trkpt>
      <trkpt lat="44.44078" lon="1.2579">
        <ele>307.76</ele>
        <time>2019-06-20T07:34:21Z</time>
      </trkpt>
      <trkpt lat="44.44071" lon="1.25822">
        <ele>308.24</ele>
        <time>2019-06-20T07:34:42Z</time>
      </trkpt>
      <trkpt lat="44.44066" lon="1.25849">
        <ele>306.32</ele>
        <time>2019-06-20T07:34:55Z</time>
      </trkpt>
      <trkpt lat="44.44067" lon="1.25879">
        <ele>306.8</ele>
        <time>2019-06-20T07:35:13Z</time>
      </trkpt>
      <trkpt lat="44.44068" lon="1.25907">
        <ele>306.8</ele>
        <time>2019-06-20T07:35:34Z</time>
      </trkpt>
      <trkpt lat="44.44066" lon="1.25944">
        <ele>306.8</ele>
        <time>2019-06-20T07:35:59Z</time>
      </trkpt>
      <trkpt lat="44.44059" lon="1.2597">
        <ele>308.72</ele>
        <time>2019-06-20T07:36:17Z</time>
      </trkpt>
      <trkpt lat="44.44049" lon="1.25995">
        <ele>309.2</ele>
        <time>2019-06-20T07:36:34Z</time>
      </trkpt>
      <trkpt lat="44.44037" lon="1.26017">
        <ele>310.16</ele>
        <time>2019-06-20T07:36:51Z</time>
      </trkpt>
      <trkpt lat="44.44025" lon="1.2604">
        <ele>310.64</ele>
        <time>2019-06-20T07:37:08Z</time>
      </trkpt>
      <trkpt lat="44.44012" lon="1.26062">
        <ele>310.64</ele>
        <time>2019-06-20T07:37:25Z</time>
      </trkpt>
      <trkpt lat="44.44002" lon="1.26086">
        <ele>312.09</ele>
        <time>2019-06-20T07:37:42Z</time>
      </trkpt>
      <trkpt lat="44.43999" lon="1.26114">
        <ele>312.57</ele>
        <time>2019-06-20T07:38:02Z</time>
      </trkpt>
      <trkpt lat="44.44005" lon="1.26141">
        <ele>313.05</ele>
        <time>2019-06-20T07:38:19Z</time>
      </trkpt>
      <trkpt lat="44.44014" lon="1.26169">
        <ele>313.05</ele>
        <time>2019-06-20T07:38:41Z</time>
      </trkpt>
      <trkpt lat="44.44023" lon="1.26195">
        <ele>313.05</ele>
        <time>2019-06-20T07:38:56Z</time>
      </trkpt>
      <trkpt lat="44.44032" lon="1.26221">
        <ele>313.05</ele>
        <time>2019-06-20T07:39:13Z</time>
      </trkpt>
      <trkpt lat="44.44042" lon="1.26246">
        <ele>312.09</ele>
        <time>2019-06-20T07:39:30Z</time>
      </trkpt>
      <trkpt lat="44.44053" lon="1.26273">
        <ele>311.6</ele>
        <time>2019-06-20T07:39:47Z</time>
      </trkpt>
      <trkpt lat="44.44062" lon="1.26293">
        <ele>311.12</ele>
        <time>2019-06-20T07:40:01Z</time>
      </trkpt>
      <trkpt lat="44.44075" lon="1.2631">
        <ele>311.12</ele>
        <time>2019-06-20T07:40:17Z</time>
      </trkpt>
      <trkpt lat="44.44091" lon="1.26329">
        <ele>313.05</ele>
        <time>2019-06-20T07:40:39Z</time>
      </trkpt>
      <trkpt lat="44.44108" lon="1.26354">
        <ele>313.05</ele>
        <time>2019-06-20T07:41:02Z</time>
      </trkpt>
      <trkpt lat="44.44125" lon="1.26376">
        <ele>311.12</ele>
        <time>2019-06-20T07:41:23Z</time>
      </trkpt>
      <trkpt lat="44.44143" lon="1.26397">
        <ele>310.16</ele>
        <time>2019-06-20T07:41:42Z</time>
      </trkpt>
      <trkpt lat="44.44161" lon="1.26418">
        <ele>309.2</ele>
        <time>2019-06-20T07:42:01Z</time>
      </trkpt>
      <trkpt lat="44.44181" lon="1.2643">
        <ele>309.2</ele>
        <time>2019-06-20T07:42:19Z</time>
      </trkpt>
      <trkpt lat="44.44202" lon="1.2643">
        <ele>309.2</ele>
        <time>2019-06-20T07:42:36Z</time>
      </trkpt>
      <trkpt lat="44.4422" lon="1.26423">
        <ele>309.2</ele>
        <time>2019-06-20T07:42:53Z</time>
      </trkpt>
      <trkpt lat="44.44237" lon="1.26407">
        <ele>308.72</ele>
        <time>2019-06-20T07:43:12Z</time>
      </trkpt>
      <trkpt lat="44.44254" lon="1.2639">
        <ele>306.8</ele>
        <time>2019-06-20T07:43:31Z</time>
      </trkpt>
      <trkpt lat="44.44273" lon="1.26377">
        <ele>304.88</ele>
        <time>2019-06-20T07:43:52Z</time>
      </trkpt>
      <trkpt lat="44.44296" lon="1.26368">
        <ele>303.43</ele>
        <time>2019-06-20T07:44:14Z</time>
      </trkpt>
      <trkpt lat="44.44322" lon="1.26357">
        <ele>299.59</ele>
        <time>2019-06-20T07:44:39Z</time>
      </trkpt>
      <trkpt lat="44.44345" lon="1.26337">
        <ele>296.22</ele>
        <time>2019-06-20T07:45:03Z</time>
      </trkpt>
      <trkpt lat="44.44368" lon="1.26318">
        <ele>293.34</ele>
        <time>2019-06-20T07:45:29Z</time>
      </trkpt>
      <trkpt lat="44.44391" lon="1.26306">
        <ele>290.46</ele>
        <time>2019-06-20T07:45:52Z</time>
      </trkpt>
      <trkpt lat="44.44413" lon="1.26296">
        <ele>289.97</ele>
        <time>2019-06-20T07:46:12Z</time>
      </trkpt>
      <trkpt lat="44.44436" lon="1.26284">
        <ele>289.49</ele>
        <time>2019-06-20T07:46:29Z</time>
      </trkpt>
      <trkpt lat="44.4445" lon="1.26266">
        <ele>289.49</ele>
        <time>2019-06-20T07:46:47Z</time>
      </trkpt>
      <trkpt lat="44.44463" lon="1.26251">
        <ele>289.49</ele>
        <time>2019-06-20T07:47:26Z</time>
      </trkpt>
      <trkpt lat="44.44478" lon="1.26235">
        <ele>289.01</ele>
        <time>2019-06-20T07:47:41Z</time>
      </trkpt>
      <trkpt lat="44.44493" lon="1.26221">
        <ele>288.05</ele>
        <time>2019-06-20T07:48:01Z</time>
      </trkpt>
      <trkpt lat="44.44498" lon="1.2622">
        <ele>288.05</ele>
        <time>2019-06-20T07:50:04Z</time>
      </trkpt>
      <trkpt lat="44.44512" lon="1.26207">
        <ele>289.01</ele>
        <time>2019-06-20T07:51:35Z</time>
      </trkpt>
      <trkpt lat="44.44528" lon="1.26193">
        <ele>289.97</ele>
        <time>2019-06-20T07:51:55Z</time>
      </trkpt>
      <trkpt lat="44.44545" lon="1.26179">
        <ele>290.46</ele>
        <time>2019-06-20T07:52:13Z</time>
      </trkpt>
      <trkpt lat="44.44561" lon="1.26166">
        <ele>292.38</ele>
        <time>2019-06-20T07:52:31Z</time>
      </trkpt>
      <trkpt lat="44.44575" lon="1.26146">
        <ele>293.34</ele>
        <time>2019-06-20T07:52:50Z</time>
      </trkpt>
      <trkpt lat="44.44587" lon="1.26124">
        <ele>294.3</ele>
        <time>2019-06-20T07:53:08Z</time>
      </trkpt>
      <trkpt lat="44.44599" lon="1.26102">
        <ele>295.26</ele>
        <time>2019-06-20T07:53:24Z</time>
      </trkpt>
      <trkpt lat="44.44611" lon="1.2608">
        <ele>295.74</ele>
        <time>2019-06-20T07:53:42Z</time>
      </trkpt>
      <trkpt lat="44.44623" lon="1.26057">
        <ele>296.22</ele>
        <time>2019-06-20T07:54:00Z</time>
      </trkpt>
      <trkpt lat="44.44637" lon="1.26035">
        <ele>296.7</ele>
        <time>2019-06-20T07:54:20Z</time>
      </trkpt>
      <trkpt lat="44.44649" lon="1.26009">
        <ele>297.18</ele>
        <time>2019-06-20T07:54:45Z</time>
      </trkpt>
      <trkpt lat="44.4465" lon="1.2598">
        <ele>297.18</ele>
        <time>2019-06-20T07:55:04Z</time>
      </trkpt>
      <trkpt lat="44.44657" lon="1.25956">
        <ele>297.18</ele>
        <time>2019-06-20T07:55:21Z</time>
      </trkpt>
      <trkpt lat="44.44666" lon="1.25932">
        <ele>297.67</ele>
        <time>2019-06-20T07:55:38Z</time>
      </trkpt>
      <trkpt lat="44.44675" lon="1.25909">
        <ele>298.63</ele>
        <time>2019-06-20T07:55:54Z</time>
      </trkpt>
      <trkpt lat="44.44688" lon="1.25888">
        <ele>299.11</ele>
        <time>2019-06-20T07:56:14Z</time>
      </trkpt>
      <trkpt lat="44.44704" lon="1.25876">
        <ele>298.63</ele>
        <time>2019-06-20T07:56:27Z</time>
      </trkpt>
      <trkpt lat="44.44721" lon="1.25865">
        <ele>299.11</ele>
        <time>2019-06-20T07:56:42Z</time>
      </trkpt>
      <trkpt lat="44.44736" lon="1.25854">
        <ele>297.67</ele>
        <time>2019-06-20T07:56:56Z</time>
      </trkpt>
      <trkpt lat="44.44751" lon="1.2584">
        <ele>296.22</ele>
        <time>2019-06-20T07:57:15Z</time>
      </trkpt>
      <trkpt lat="44.44766" lon="1.2583">
        <ele>295.74</ele>
        <time>2019-06-20T07:57:26Z</time>
      </trkpt>
      <trkpt lat="44.44784" lon="1.2582">
        <ele>295.26</ele>
        <time>2019-06-20T07:57:40Z</time>
      </trkpt>
      <trkpt lat="44.44801" lon="1.25812">
        <ele>294.78</ele>
        <time>2019-06-20T07:57:55Z</time>
      </trkpt>
      <trkpt lat="44.44818" lon="1.25804">
        <ele>294.3</ele>
        <time>2019-06-20T07:58:11Z</time>
      </trkpt>
      <trkpt lat="44.44836" lon="1.258">
        <ele>294.3</ele>
        <time>2019-06-20T07:58:26Z</time>
      </trkpt>
      <trkpt lat="44.44851" lon="1.25798">
        <ele>293.82</ele>
        <time>2019-06-20T07:58:39Z</time>
      </trkpt>
      <trkpt lat="44.44869" lon="1.25798">
        <ele>293.34</ele>
        <time>2019-06-20T07:58:51Z</time>
      </trkpt>
      <trkpt lat="44.44887" lon="1.25802">
        <ele>292.86</ele>
        <time>2019-06-20T07:59:07Z</time>
      </trkpt>
      <trkpt lat="44.44905" lon="1.25811">
        <ele>292.38</ele>
        <time>2019-06-20T07:59:25Z</time>
      </trkpt>
      <trkpt lat="44.44925" lon="1.25817">
        <ele>291.42</ele>
        <time>2019-06-20T07:59:43Z</time>
      </trkpt>
      <trkpt lat="44.44944" lon="1.25819">
        <ele>290.94</ele>
        <time>2019-06-20T07:59:59Z</time>
      </trkpt>
      <trkpt lat="44.44961" lon="1.25818">
        <ele>290.46</ele>
        <time>2019-06-20T08:00:14Z</time>
      </trkpt>
      <trkpt lat="44.44981" lon="1.25818">
        <ele>289.49</ele>
        <time>2019-06-20T08:00:31Z</time>
      </trkpt>
      <trkpt lat="44.45001" lon="1.25818">
        <ele>289.49</ele>
        <time>2019-06-20T08:00:46Z</time>
      </trkpt>
      <trkpt lat="44.45019" lon="1.25816">
        <ele>288.53</ele>
        <time>2019-06-20T08:01:07Z</time>
      </trkpt>
      <trkpt lat="44.45041" lon="1.25811">
        <ele>287.57</ele>
        <time>2019-06-20T08:01:44Z</time>
      </trkpt>
      <trkpt lat="44.45066" lon="1.25797">
        <ele>284.69</ele>
        <time>2019-06-20T08:02:09Z</time>
      </trkpt>
      <trkpt lat="44.45085" lon="1.25781">
        <ele>282.77</ele>
        <time>2019-06-20T08:02:26Z</time>
      </trkpt>
      <trkpt lat="44.451" lon="1.25768">
        <ele>282.28</ele>
        <time>2019-06-20T08:02:41Z</time>
      </trkpt>
      <trkpt lat="44.45114" lon="1.25754">
        <ele>281.32</ele>
        <time>2019-06-20T08:02:57Z</time>
      </trkpt>
      <trkpt lat="44.45133" lon="1.2573">
        <ele>279.88</ele>
        <time>2019-06-20T08:03:25Z</time>
      </trkpt>
      <trkpt lat="44.45146" lon="1.25712">
        <ele>278.44</ele>
        <time>2019-06-20T08:03:39Z</time>
      </trkpt>
      <trkpt lat="44.45158" lon="1.25697">
        <ele>277.96</ele>
        <time>2019-06-20T08:03:53Z</time>
      </trkpt>
      <trkpt lat="44.45173" lon="1.25676">
        <ele>276.52</ele>
        <time>2019-06-20T08:04:14Z</time>
      </trkpt>
      <trkpt lat="44.45188" lon="1.25656">
        <ele>274.59</ele>
        <time>2019-06-20T08:04:34Z</time>
      </trkpt>
      <trkpt lat="44.45201" lon="1.25636">
        <ele>272.67</ele>
        <time>2019-06-20T08:05:01Z</time>
      </trkpt>
      <trkpt lat="44.45213" lon="1.2561">
        <ele>270.75</ele>
        <time>2019-06-20T08:05:30Z</time>
      </trkpt>
      <trkpt lat="44.45222" lon="1.25585">
        <ele>268.83</ele>
        <time>2019-06-20T08:05:46Z</time>
      </trkpt>
      <trkpt lat="44.45236" lon="1.25559">
        <ele>266.9</ele>
        <time>2019-06-20T08:06:02Z</time>
      </trkpt>
      <trkpt lat="44.45253" lon="1.25545">
        <ele>265.46</ele>
        <time>2019-06-20T08:06:19Z</time>
      </trkpt>
      <trkpt lat="44.45272" lon="1.25529">
        <ele>264.02</ele>
        <time>2019-06-20T08:06:42Z</time>
      </trkpt>
      <trkpt lat="44.45277" lon="1.25519">
        <ele>262.58</ele>
        <time>2019-06-20T08:13:10Z</time>
      </trkpt>
      <trkpt lat="44.45261" lon="1.25508">
        <ele>261.62</ele>
        <time>2019-06-20T08:13:33Z</time>
      </trkpt>
      <trkpt lat="44.45245" lon="1.25499">
        <ele>261.14</ele>
        <time>2019-06-20T08:13:54Z</time>
      </trkpt>
      <trkpt lat="44.45228" lon="1.25493">
        <ele>261.14</ele>
        <time>2019-06-20T08:14:10Z</time>
      </trkpt>
      <trkpt lat="44.45208" lon="1.2549">
        <ele>260.65</ele>
        <time>2019-06-20T08:14:24Z</time>
      </trkpt>
      <trkpt lat="44.45195" lon="1.25486">
        <ele>260.65</ele>
        <time>2019-06-20T08:14:40Z</time>
      </trkpt>
      <trkpt lat="44.45176" lon="1.25484">
        <ele>260.65</ele>
        <time>2019-06-20T08:14:50Z</time>
      </trkpt>
      <trkpt lat="44.45155" lon="1.25482">
        <ele>260.65</ele>
        <time>2019-06-20T08:15:08Z</time>
      </trkpt>
      <trkpt lat="44.4514" lon="1.25466">
        <ele>261.62</ele>
        <time>2019-06-20T08:15:25Z</time>
      </trkpt>
      <trkpt lat="44.45126" lon="1.25446">
        <ele>263.54</ele>
        <time>2019-06-20T08:16:04Z</time>
      </trkpt>
      <trkpt lat="44.45114" lon="1.25426">
        <ele>265.46</ele>
        <time>2019-06-20T08:16:45Z</time>
      </trkpt>
      <trkpt lat="44.45098" lon="1.25401">
        <ele>268.35</ele>
        <time>2019-06-20T08:17:12Z</time>
      </trkpt>
      <trkpt lat="44.45082" lon="1.25377">
        <ele>270.75</ele>
        <time>2019-06-20T08:17:37Z</time>
      </trkpt>
      <trkpt lat="44.45063" lon="1.25357">
        <ele>273.15</ele>
        <time>2019-06-20T08:18:00Z</time>
      </trkpt>
      <trkpt lat="44.4505" lon="1.25327">
        <ele>276.52</ele>
        <time>2019-06-20T08:18:27Z</time>
      </trkpt>
      <trkpt lat="44.45042" lon="1.25281">
        <ele>278.92</ele>
        <time>2019-06-20T08:19:14Z</time>
      </trkpt>
      <trkpt lat="44.45037" lon="1.2525">
        <ele>278.92</ele>
        <time>2019-06-20T08:19:45Z</time>
      </trkpt>
      <trkpt lat="44.45037" lon="1.25215">
        <ele>276.52</ele>
        <time>2019-06-20T08:20:15Z</time>
      </trkpt>
      <trkpt lat="44.45031" lon="1.25179">
        <ele>273.63</ele>
        <time>2019-06-20T08:20:41Z</time>
      </trkpt>
      <trkpt lat="44.45017" lon="1.25151">
        <ele>271.23</ele>
        <time>2019-06-20T08:21:06Z</time>
      </trkpt>
      <trkpt lat="44.45005" lon="1.25124">
        <ele>268.35</ele>
        <time>2019-06-20T08:21:27Z</time>
      </trkpt>
      <trkpt lat="44.44994" lon="1.25098">
        <ele>265.94</ele>
        <time>2019-06-20T08:21:48Z</time>
      </trkpt>
      <trkpt lat="44.44983" lon="1.25072">
        <ele>264.02</ele>
        <time>2019-06-20T08:22:16Z</time>
      </trkpt>
      <trkpt lat="44.44965" lon="1.2506">
        <ele>261.62</ele>
        <time>2019-06-20T08:22:56Z</time>
      </trkpt>
      <trkpt lat="44.44946" lon="1.25041">
        <ele>258.73</ele>
        <time>2019-06-20T08:24:02Z</time>
      </trkpt>
      <trkpt lat="44.44931" lon="1.25016">
        <ele>255.85</ele>
        <time>2019-06-20T08:24:22Z</time>
      </trkpt>
      <trkpt lat="44.44919" lon="1.24996">
        <ele>254.41</ele>
        <time>2019-06-20T08:24:58Z</time>
      </trkpt>
      <trkpt lat="44.44923" lon="1.24966">
        <ele>253.44</ele>
        <time>2019-06-20T08:25:18Z</time>
      </trkpt>
      <trkpt lat="44.44923" lon="1.2494">
        <ele>252.96</ele>
        <time>2019-06-20T08:25:33Z</time>
      </trkpt>
      <trkpt lat="44.44925" lon="1.24906">
        <ele>252.48</ele>
        <time>2019-06-20T08:25:55Z</time>
      </trkpt>
      <trkpt lat="44.44927" lon="1.2488">
        <ele>251.52</ele>
        <time>2019-06-20T08:26:08Z</time>
      </trkpt>
      <trkpt lat="44.4493" lon="1.24851">
        <ele>251.04</ele>
        <time>2019-06-20T08:26:25Z</time>
      </trkpt>
      <trkpt lat="44.44935" lon="1.24828">
        <ele>250.56</ele>
        <time>2019-06-20T08:26:40Z</time>
      </trkpt>
      <trkpt lat="44.4494" lon="1.24806">
        <ele>250.56</ele>
        <time>2019-06-20T08:26:51Z</time>
      </trkpt>
      <trkpt lat="44.44953" lon="1.24785">
        <ele>250.08</ele>
        <time>2019-06-20T08:27:13Z</time>
      </trkpt>
      <trkpt lat="44.44966" lon="1.24764">
        <ele>250.08</ele>
        <time>2019-06-20T08:27:30Z</time>
      </trkpt>
      <trkpt lat="44.44976" lon="1.24743">
        <ele>249.6</ele>
        <time>2019-06-20T08:27:46Z</time>
      </trkpt>
      <trkpt lat="44.44989" lon="1.24724">
        <ele>249.6</ele>
        <time>2019-06-20T08:28:15Z</time>
      </trkpt>
      <trkpt lat="44.45004" lon="1.24708">
        <ele>250.08</ele>
        <time>2019-06-20T08:29:09Z</time>
      </trkpt>
      <trkpt lat="44.45018" lon="1.24687">
        <ele>251.52</ele>
        <time>2019-06-20T08:29:32Z</time>
      </trkpt>
      <trkpt lat="44.45031" lon="1.24665">
        <ele>253.44</ele>
        <time>2019-06-20T08:31:15Z</time>
      </trkpt>
      <trkpt lat="44.45044" lon="1.2464">
        <ele>255.85</ele>
        <time>2019-06-20T08:31:58Z</time>
      </trkpt>
      <trkpt lat="44.45057" lon="1.24615">
        <ele>258.25</ele>
        <time>2019-06-20T08:32:20Z</time>
      </trkpt>
      <trkpt lat="44.4507" lon="1.24586">
        <ele>260.17</ele>
        <time>2019-06-20T08:32:42Z</time>
      </trkpt>
      <trkpt lat="44.45068" lon="1.24544">
        <ele>261.62</ele>
        <time>2019-06-20T08:34:05Z</time>
      </trkpt>
      <trkpt lat="44.45081" lon="1.24515">
        <ele>260.65</ele>
        <time>2019-06-20T08:34:35Z</time>
      </trkpt>
      <trkpt lat="44.45101" lon="1.24489">
        <ele>260.17</ele>
        <time>2019-06-20T08:34:56Z</time>
      </trkpt>
      <trkpt lat="44.45123" lon="1.24478">
        <ele>262.1</ele>
        <time>2019-06-20T08:35:15Z</time>
      </trkpt>
      <trkpt lat="44.4514" lon="1.24463">
        <ele>263.54</ele>
        <time>2019-06-20T08:35:33Z</time>
      </trkpt>
      <trkpt lat="44.45156" lon="1.24447">
        <ele>263.54</ele>
        <time>2019-06-20T08:35:50Z</time>
      </trkpt>
      <trkpt lat="44.45172" lon="1.2443">
        <ele>263.54</ele>
        <time>2019-06-20T08:36:07Z</time>
      </trkpt>
      <trkpt lat="44.45189" lon="1.24415">
        <ele>263.54</ele>
        <time>2019-06-20T08:36:23Z</time>
      </trkpt>
      <trkpt lat="44.45205" lon="1.24397">
        <ele>263.54</ele>
        <time>2019-06-20T08:36:39Z</time>
      </trkpt>
      <trkpt lat="44.4522" lon="1.24379">
        <ele>262.58</ele>
        <time>2019-06-20T08:36:54Z</time>
      </trkpt>
      <trkpt lat="44.45233" lon="1.24359">
        <ele>262.58</ele>
        <time>2019-06-20T08:37:09Z</time>
      </trkpt>
      <trkpt lat="44.45244" lon="1.24337">
        <ele>262.58</ele>
        <time>2019-06-20T08:37:24Z</time>
      </trkpt>
      <trkpt lat="44.45255" lon="1.24314">
        <ele>262.58</ele>
        <time>2019-06-20T08:37:41Z</time>
      </trkpt>
      <trkpt lat="44.45267" lon="1.24289">
        <ele>263.54</ele>
        <time>2019-06-20T08:37:57Z</time>
      </trkpt>
      <trkpt lat="44.45279" lon="1.24268">
        <ele>264.5</ele>
        <time>2019-06-20T08:38:12Z</time>
      </trkpt>
      <trkpt lat="44.45294" lon="1.24249">
        <ele>264.5</ele>
        <time>2019-06-20T08:38:27Z</time>
      </trkpt>
      <trkpt lat="44.45311" lon="1.24233">
        <ele>265.46</ele>
        <time>2019-06-20T08:38:43Z</time>
      </trkpt>
      <trkpt lat="44.45327" lon="1.24217">
        <ele>265.94</ele>
        <time>2019-06-20T08:38:59Z</time>
      </trkpt>
      <trkpt lat="44.45343" lon="1.24201">
        <ele>266.42</ele>
        <time>2019-06-20T08:39:15Z</time>
      </trkpt>
      <trkpt lat="44.4536" lon="1.24185">
        <ele>266.42</ele>
        <time>2019-06-20T08:39:31Z</time>
      </trkpt>
      <trkpt lat="44.45375" lon="1.24167">
        <ele>266.42</ele>
        <time>2019-06-20T08:39:47Z</time>
      </trkpt>
      <trkpt lat="44.45385" lon="1.24158">
        <ele>264.98</ele>
        <time>2019-06-20T08:41:10Z</time>
      </trkpt>
      <trkpt lat="44.45391" lon="1.24148">
        <ele>264.98</ele>
        <time>2019-06-20T08:42:55Z</time>
      </trkpt>
      <trkpt lat="44.45408" lon="1.24131">
        <ele>264.98</ele>
        <time>2019-06-20T08:43:09Z</time>
      </trkpt>
      <trkpt lat="44.45424" lon="1.24111">
        <ele>264.98</ele>
        <time>2019-06-20T08:43:22Z</time>
      </trkpt>
      <trkpt lat="44.45438" lon="1.24091">
        <ele>264.98</ele>
        <time>2019-06-20T08:43:35Z</time>
      </trkpt>
      <trkpt lat="44.45452" lon="1.24068">
        <ele>265.94</ele>
        <time>2019-06-20T08:43:50Z</time>
      </trkpt>
      <trkpt lat="44.45467" lon="1.24047">
        <ele>267.86</ele>
        <time>2019-06-20T08:44:05Z</time>
      </trkpt>
      <trkpt lat="44.45482" lon="1.24027">
        <ele>269.31</ele>
        <time>2019-06-20T08:44:18Z</time>
      </trkpt>
      <trkpt lat="44.455" lon="1.24015">
        <ele>271.23</ele>
        <time>2019-06-20T08:44:33Z</time>
      </trkpt>
      <trkpt lat="44.45518" lon="1.24006">
        <ele>272.19</ele>
        <time>2019-06-20T08:44:42Z</time>
      </trkpt>
      <trkpt lat="44.45536" lon="1.23997">
        <ele>272.67</ele>
        <time>2019-06-20T08:44:57Z</time>
      </trkpt>
      <trkpt lat="44.45553" lon="1.23988">
        <ele>272.67</ele>
        <time>2019-06-20T08:45:08Z</time>
      </trkpt>
      <trkpt lat="44.45574" lon="1.23979">
        <ele>273.15</ele>
        <time>2019-06-20T08:45:22Z</time>
      </trkpt>
      <trkpt lat="44.45593" lon="1.2397">
        <ele>273.15</ele>
        <time>2019-06-20T08:45:35Z</time>
      </trkpt>
      <trkpt lat="44.45609" lon="1.23964">
        <ele>273.15</ele>
        <time>2019-06-20T08:45:46Z</time>
      </trkpt>
      <trkpt lat="44.45627" lon="1.23949">
        <ele>271.23</ele>
        <time>2019-06-20T08:46:01Z</time>
      </trkpt>
      <trkpt lat="44.45647" lon="1.23935">
        <ele>270.75</ele>
        <time>2019-06-20T08:46:13Z</time>
      </trkpt>
      <trkpt lat="44.45665" lon="1.23925">
        <ele>270.75</ele>
        <time>2019-06-20T08:46:25Z</time>
      </trkpt>
      <trkpt lat="44.45683" lon="1.23914">
        <ele>269.79</ele>
        <time>2019-06-20T08:46:38Z</time>
      </trkpt>
      <trkpt lat="44.45702" lon="1.23902">
        <ele>269.79</ele>
        <time>2019-06-20T08:46:51Z</time>
      </trkpt>
      <trkpt lat="44.45721" lon="1.23891">
        <ele>269.79</ele>
        <time>2019-06-20T08:47:04Z</time>
      </trkpt>
      <trkpt lat="44.45738" lon="1.23881">
        <ele>269.79</ele>
        <time>2019-06-20T08:47:19Z</time>
      </trkpt>
      <trkpt lat="44.45745" lon="1.23892">
        <ele>269.31</ele>
        <time>2019-06-20T08:48:06Z</time>
      </trkpt>
      <trkpt lat="44.45749" lon="1.23867">
        <ele>269.31</ele>
        <time>2019-06-20T08:48:29Z</time>
      </trkpt>
      <trkpt lat="44.45758" lon="1.23843">
        <ele>270.75</ele>
        <time>2019-06-20T08:48:47Z</time>
      </trkpt>
      <trkpt lat="44.45767" lon="1.2382">
        <ele>269.31</ele>
        <time>2019-06-20T08:49:03Z</time>
      </trkpt>
      <trkpt lat="44.45775" lon="1.23796">
        <ele>268.35</ele>
        <time>2019-06-20T08:49:18Z</time>
      </trkpt>
      <trkpt lat="44.45785" lon="1.23773">
        <ele>267.86</ele>
        <time>2019-06-20T08:49:33Z</time>
      </trkpt>
      <trkpt lat="44.45797" lon="1.23751">
        <ele>267.38</ele>
        <time>2019-06-20T08:49:48Z</time>
      </trkpt>
      <trkpt lat="44.45814" lon="1.23743">
        <ele>267.38</ele>
        <time>2019-06-20T08:50:08Z</time>
      </trkpt>
      <trkpt lat="44.45819" lon="1.23738">
        <ele>268.35</ele>
        <time>2019-06-20T08:58:28Z</time>
      </trkpt>
      <trkpt lat="44.45807" lon="1.23722">
        <ele>268.83</ele>
        <time>2019-06-20T08:59:04Z</time>
      </trkpt>
      <trkpt lat="44.45812" lon="1.23696">
        <ele>268.83</ele>
        <time>2019-06-20T08:59:24Z</time>
      </trkpt>
      <trkpt lat="44.45816" lon="1.23669">
        <ele>268.83</ele>
        <time>2019-06-20T08:59:41Z</time>
      </trkpt>
      <trkpt lat="44.45818" lon="1.23642">
        <ele>267.86</ele>
        <time>2019-06-20T08:59:57Z</time>
      </trkpt>
      <trkpt lat="44.45817" lon="1.23614">
        <ele>267.86</ele>
        <time>2019-06-20T09:00:14Z</time>
      </trkpt>
      <trkpt lat="44.45814" lon="1.23587">
        <ele>267.86</ele>
        <time>2019-06-20T09:00:30Z</time>
      </trkpt>
      <trkpt lat="44.45809" lon="1.23561">
        <ele>267.86</ele>
        <time>2019-06-20T09:00:51Z</time>
      </trkpt>
      <trkpt lat="44.4581" lon="1.23535">
        <ele>267.38</ele>
        <time>2019-06-20T09:01:06Z</time>
      </trkpt>
      <trkpt lat="44.45818" lon="1.23509">
        <ele>266.9</ele>
        <time>2019-06-20T09:01:22Z</time>
      </trkpt>
      <trkpt lat="44.45827" lon="1.23486">
        <ele>265.94</ele>
        <time>2019-06-20T09:01:37Z</time>
      </trkpt>
      <trkpt lat="44.45832" lon="1.23459">
        <ele>264.5</ele>
        <time>2019-06-20T09:01:53Z</time>
      </trkpt>
      <trkpt lat="44.45837" lon="1.23433">
        <ele>263.06</ele>
        <time>2019-06-20T09:02:07Z</time>
      </trkpt>
      <trkpt lat="44.45845" lon="1.23408">
        <ele>262.1</ele>
        <time>2019-06-20T09:02:22Z</time>
      </trkpt>
      <trkpt lat="44.45853" lon="1.23385">
        <ele>260.65</ele>
        <time>2019-06-20T09:02:38Z</time>
      </trkpt>
      <trkpt lat="44.4586" lon="1.2336">
        <ele>259.21</ele>
        <time>2019-06-20T09:02:53Z</time>
      </trkpt>
      <trkpt lat="44.45863" lon="1.23335">
        <ele>257.29</ele>
        <time>2019-06-20T09:03:08Z</time>
      </trkpt>
      <trkpt lat="44.45848" lon="1.23327">
        <ele>257.29</ele>
        <time>2019-06-20T09:03:30Z</time>
      </trkpt>
      <trkpt lat="44.4583" lon="1.2332">
        <ele>257.29</ele>
        <time>2019-06-20T09:03:45Z</time>
      </trkpt>
      <trkpt lat="44.45813" lon="1.23314">
        <ele>256.33</ele>
        <time>2019-06-20T09:04:00Z</time>
      </trkpt>
      <trkpt lat="44.45796" lon="1.23301">
        <ele>254.41</ele>
        <time>2019-06-20T09:04:19Z</time>
      </trkpt>
      <trkpt lat="44.45775" lon="1.23284">
        <ele>250.08</ele>
        <time>2019-06-20T09:04:47Z</time>
      </trkpt>
      <trkpt lat="44.45756" lon="1.23262">
        <ele>246.72</ele>
        <time>2019-06-20T09:05:10Z</time>
      </trkpt>
      <trkpt lat="44.45731" lon="1.23248">
        <ele>245.27</ele>
        <time>2019-06-20T09:05:32Z</time>
      </trkpt>
      <trkpt lat="44.45709" lon="1.23234">
        <ele>243.83</ele>
        <time>2019-06-20T09:05:50Z</time>
      </trkpt>
      <trkpt lat="44.45687" lon="1.23217">
        <ele>240.95</ele>
        <time>2019-06-20T09:06:08Z</time>
      </trkpt>
      <trkpt lat="44.45667" lon="1.232">
        <ele>238.54</ele>
        <time>2019-06-20T09:06:33Z</time>
      </trkpt>
      <trkpt lat="44.45648" lon="1.23181">
        <ele>235.18</ele>
        <time>2019-06-20T09:06:51Z</time>
      </trkpt>
      <trkpt lat="44.45629" lon="1.23165">
        <ele>230.85</ele>
        <time>2019-06-20T09:07:09Z</time>
      </trkpt>
      <trkpt lat="44.45608" lon="1.23148">
        <ele>227.49</ele>
        <time>2019-06-20T09:07:27Z</time>
      </trkpt>
      <trkpt lat="44.45587" lon="1.23127">
        <ele>224.12</ele>
        <time>2019-06-20T09:07:46Z</time>
      </trkpt>
      <trkpt lat="44.45567" lon="1.23108">
        <ele>219.8</ele>
        <time>2019-06-20T09:08:05Z</time>
      </trkpt>
      <trkpt lat="44.45548" lon="1.2309">
        <ele>215.95</ele>
        <time>2019-06-20T09:08:25Z</time>
      </trkpt>
      <trkpt lat="44.45532" lon="1.23069">
        <ele>212.11</ele>
        <time>2019-06-20T09:08:46Z</time>
      </trkpt>
      <trkpt lat="44.45516" lon="1.2305">
        <ele>208.26</ele>
        <time>2019-06-20T09:09:10Z</time>
      </trkpt>
      <trkpt lat="44.45501" lon="1.23032">
        <ele>204.42</ele>
        <time>2019-06-20T09:09:38Z</time>
      </trkpt>
      <trkpt lat="44.45484" lon="1.23018">
        <ele>199.61</ele>
        <time>2019-06-20T09:10:00Z</time>
      </trkpt>
      <trkpt lat="44.45467" lon="1.23006">
        <ele>195.77</ele>
        <time>2019-06-20T09:10:21Z</time>
      </trkpt>
      <trkpt lat="44.45448" lon="1.22995">
        <ele>191.92</ele>
        <time>2019-06-20T09:10:39Z</time>
      </trkpt>
      <trkpt lat="44.45439" lon="1.22971">
        <ele>187.11</ele>
        <time>2019-06-20T09:11:04Z</time>
      </trkpt>
      <trkpt lat="44.45437" lon="1.22942">
        <ele>182.79</ele>
        <time>2019-06-20T09:11:30Z</time>
      </trkpt>
      <trkpt lat="44.45427" lon="1.22915">
        <ele>178.46</ele>
        <time>2019-06-20T09:11:56Z</time>
      </trkpt>
      <trkpt lat="44.45418" lon="1.22888">
        <ele>174.62</ele>
        <time>2019-06-20T09:12:20Z</time>
      </trkpt>
      <trkpt lat="44.45411" lon="1.22861">
        <ele>172.21</ele>
        <time>2019-06-20T09:12:45Z</time>
      </trkpt>
      <trkpt lat="44.45403" lon="1.22837">
        <ele>168.85</ele>
        <time>2019-06-20T09:13:38Z</time>
      </trkpt>
      <trkpt lat="44.45389" lon="1.22818">
        <ele>164.04</ele>
        <time>2019-06-20T09:14:11Z</time>
      </trkpt>
      <trkpt lat="44.45367" lon="1.22808">
        <ele>156.35</ele>
        <time>2019-06-20T09:14:57Z</time>
      </trkpt>
      <trkpt lat="44.45346" lon="1.22801">
        <ele>152.03</ele>
        <time>2019-06-20T09:15:24Z</time>
      </trkpt>
      <trkpt lat="44.4533" lon="1.22795">
        <ele>150.58</ele>
        <time>2019-06-20T09:20:05Z</time>
      </trkpt>
      <trkpt lat="44.45311" lon="1.22782">
        <ele>151.54</ele>
        <time>2019-06-20T09:20:26Z</time>
      </trkpt>
      <trkpt lat="44.45296" lon="1.22765">
        <ele>152.51</ele>
        <time>2019-06-20T09:20:47Z</time>
      </trkpt>
      <trkpt lat="44.45272" lon="1.22745">
        <ele>154.91</ele>
        <time>2019-06-20T09:21:17Z</time>
      </trkpt>
      <trkpt lat="44.45259" lon="1.22766">
        <ele>158.75</ele>
        <time>2019-06-20T09:21:55Z</time>
      </trkpt>
      <trkpt lat="44.45243" lon="1.22795">
        <ele>162.12</ele>
        <time>2019-06-20T09:22:26Z</time>
      </trkpt>
      <trkpt lat="44.45226" lon="1.22819">
        <ele>165</ele>
        <time>2019-06-20T09:22:54Z</time>
      </trkpt>
      <trkpt lat="44.45207" lon="1.22835">
        <ele>167.89</ele>
        <time>2019-06-20T09:23:19Z</time>
      </trkpt>
      <trkpt lat="44.45187" lon="1.22852">
        <ele>170.29</ele>
        <time>2019-06-20T09:23:47Z</time>
      </trkpt>
      <trkpt lat="44.45186" lon="1.2283">
        <ele>174.14</ele>
        <time>2019-06-20T09:24:24Z</time>
      </trkpt>
      <trkpt lat="44.45198" lon="1.22803">
        <ele>175.58</ele>
        <time>2019-06-20T09:24:46Z</time>
      </trkpt>
      <trkpt lat="44.45196" lon="1.22774">
        <ele>177.02</ele>
        <time>2019-06-20T09:25:10Z</time>
      </trkpt>
      <trkpt lat="44.45184" lon="1.22748">
        <ele>178.94</ele>
        <time>2019-06-20T09:25:34Z</time>
      </trkpt>
      <trkpt lat="44.45169" lon="1.22758">
        <ele>182.79</ele>
        <time>2019-06-20T09:26:02Z</time>
      </trkpt>
      <trkpt lat="44.45152" lon="1.2278">
        <ele>185.19</ele>
        <time>2019-06-20T09:26:26Z</time>
      </trkpt>
      <trkpt lat="44.45139" lon="1.22802">
        <ele>189.04</ele>
        <time>2019-06-20T09:32:50Z</time>
      </trkpt>
      <trkpt lat="44.4511" lon="1.22759">
        <ele>192.88</ele>
        <time>2019-06-20T09:33:37Z</time>
      </trkpt>
      <trkpt lat="44.45087" lon="1.22755">
        <ele>197.21</ele>
        <time>2019-06-20T09:34:21Z</time>
      </trkpt>
      <trkpt lat="44.45064" lon="1.22783">
        <ele>200.57</ele>
        <time>2019-06-20T09:34:56Z</time>
      </trkpt>
      <trkpt lat="44.45041" lon="1.22805">
        <ele>203.94</ele>
        <time>2019-06-20T09:35:27Z</time>
      </trkpt>
      <trkpt lat="44.45022" lon="1.22802">
        <ele>206.82</ele>
        <time>2019-06-20T09:36:01Z</time>
      </trkpt>
      <trkpt lat="44.45024" lon="1.22757">
        <ele>210.67</ele>
        <time>2019-06-20T09:36:41Z</time>
      </trkpt>
      <trkpt lat="44.4502" lon="1.22713">
        <ele>210.67</ele>
        <time>2019-06-20T09:37:11Z</time>
      </trkpt>
      <trkpt lat="44.45" lon="1.22683">
        <ele>212.59</ele>
        <time>2019-06-20T09:37:54Z</time>
      </trkpt>
      <trkpt lat="44.44979" lon="1.22668">
        <ele>215.95</ele>
        <time>2019-06-20T09:38:43Z</time>
      </trkpt>
      <trkpt lat="44.44952" lon="1.22679">
        <ele>217.88</ele>
        <time>2019-06-20T09:39:20Z</time>
      </trkpt>
      <trkpt lat="44.44903" lon="1.22715">
        <ele>219.8</ele>
        <time>2019-06-20T09:40:13Z</time>
      </trkpt>
      <trkpt lat="44.44869" lon="1.22721">
        <ele>220.28</ele>
        <time>2019-06-20T09:40:44Z</time>
      </trkpt>
      <trkpt lat="44.44842" lon="1.22727">
        <ele>221.24</ele>
        <time>2019-06-20T09:41:10Z</time>
      </trkpt>
      <trkpt lat="44.44815" lon="1.22734">
        <ele>222.2</ele>
        <time>2019-06-20T09:41:33Z</time>
      </trkpt>
      <trkpt lat="44.44793" lon="1.22744">
        <ele>222.68</ele>
        <time>2019-06-20T09:41:51Z</time>
      </trkpt>
      <trkpt lat="44.4477" lon="1.22738">
        <ele>223.64</ele>
        <time>2019-06-20T09:42:12Z</time>
      </trkpt>
      <trkpt lat="44.44753" lon="1.2272">
        <ele>224.61</ele>
        <time>2019-06-20T09:42:32Z</time>
      </trkpt>
      <trkpt lat="44.44739" lon="1.22692">
        <ele>225.57</ele>
        <time>2019-06-20T09:42:52Z</time>
      </trkpt>
      <trkpt lat="44.44749" lon="1.22665">
        <ele>225.57</ele>
        <time>2019-06-20T09:43:13Z</time>
      </trkpt>
      <trkpt lat="44.4475" lon="1.22634">
        <ele>225.57</ele>
        <time>2019-06-20T09:43:33Z</time>
      </trkpt>
      <trkpt lat="44.44746" lon="1.22606">
        <ele>226.53</ele>
        <time>2019-06-20T09:43:52Z</time>
      </trkpt>
      <trkpt lat="44.44738" lon="1.22579">
        <ele>227.97</ele>
        <time>2019-06-20T09:44:11Z</time>
      </trkpt>
      <trkpt lat="44.4472" lon="1.22566">
        <ele>228.93</ele>
        <time>2019-06-20T09:44:28Z</time>
      </trkpt>
      <trkpt lat="44.44702" lon="1.22569">
        <ele>229.89</ele>
        <time>2019-06-20T09:44:47Z</time>
      </trkpt>
      <trkpt lat="44.44683" lon="1.22581">
        <ele>231.33</ele>
        <time>2019-06-20T09:45:06Z</time>
      </trkpt>
      <trkpt lat="44.44665" lon="1.22593">
        <ele>232.78</ele>
        <time>2019-06-20T09:45:25Z</time>
      </trkpt>
      <trkpt lat="44.44646" lon="1.22607">
        <ele>234.7</ele>
        <time>2019-06-20T09:45:47Z</time>
      </trkpt>
      <trkpt lat="44.44625" lon="1.22622">
        <ele>236.62</ele>
        <time>2019-06-20T09:46:07Z</time>
      </trkpt>
      <trkpt lat="44.44607" lon="1.22636">
        <ele>237.58</ele>
        <time>2019-06-20T09:46:27Z</time>
      </trkpt>
      <trkpt lat="44.4459" lon="1.22654">
        <ele>239.02</ele>
        <time>2019-06-20T09:46:45Z</time>
      </trkpt>
      <trkpt lat="44.44574" lon="1.22672">
        <ele>240.95</ele>
        <time>2019-06-20T09:47:06Z</time>
      </trkpt>
      <trkpt lat="44.44559" lon="1.2269">
        <ele>242.39</ele>
        <time>2019-06-20T09:47:25Z</time>
      </trkpt>
      <trkpt lat="44.44544" lon="1.22709">
        <ele>243.83</ele>
        <time>2019-06-20T09:47:44Z</time>
      </trkpt>
      <trkpt lat="44.44534" lon="1.22733">
        <ele>245.27</ele>
        <time>2019-06-20T09:48:04Z</time>
      </trkpt>
      <trkpt lat="44.44534" lon="1.22761">
        <ele>247.2</ele>
        <time>2019-06-20T09:48:23Z</time>
      </trkpt>
      <trkpt lat="44.44535" lon="1.2279">
        <ele>248.64</ele>
        <time>2019-06-20T09:48:51Z</time>
      </trkpt>
      <trkpt lat="44.4453" lon="1.22806">
        <ele>249.6</ele>
        <time>2019-06-20T09:49:24Z</time>
      </trkpt>
      <trkpt lat="44.44534" lon="1.22826">
        <ele>251.52</ele>
        <time>2019-06-20T09:49:46Z</time>
      </trkpt>
      <trkpt lat="44.44546" lon="1.22848">
        <ele>253.44</ele>
        <time>2019-06-20T09:50:08Z</time>
      </trkpt>
      <trkpt lat="44.44547" lon="1.22876">
        <ele>254.41</ele>
        <time>2019-06-20T09:50:26Z</time>
      </trkpt>
      <trkpt lat="44.44551" lon="1.22879">
        <ele>255.85</ele>
        <time>2019-06-20T09:51:34Z</time>
      </trkpt>
      <trkpt lat="44.4453" lon="1.2288">
        <ele>254.41</ele>
        <time>2019-06-20T09:52:10Z</time>
      </trkpt>
      <trkpt lat="44.44514" lon="1.22887">
        <ele>252.96</ele>
        <time>2019-06-20T09:52:29Z</time>
      </trkpt>
      <trkpt lat="44.44505" lon="1.22909">
        <ele>252</ele>
        <time>2019-06-20T09:52:46Z</time>
      </trkpt>
      <trkpt lat="44.44491" lon="1.22919">
        <ele>251.04</ele>
        <time>2019-06-20T09:53:11Z</time>
      </trkpt>
      <trkpt lat="44.44481" lon="1.22926">
        <ele>250.56</ele>
        <time>2019-06-20T09:53:43Z</time>
      </trkpt>
      <trkpt lat="44.44461" lon="1.22934">
        <ele>250.56</ele>
        <time>2019-06-20T09:53:58Z</time>
      </trkpt>
      <trkpt lat="44.44447" lon="1.22945">
        <ele>250.08</ele>
        <time>2019-06-20T09:54:28Z</time>
      </trkpt>
      <trkpt lat="44.44431" lon="1.22959">
        <ele>250.08</ele>
        <time>2019-06-20T09:54:42Z</time>
      </trkpt>
      <trkpt lat="44.44416" lon="1.22975">
        <ele>249.6</ele>
        <time>2019-06-20T09:54:56Z</time>
      </trkpt>
      <trkpt lat="44.444" lon="1.22993">
        <ele>251.04</ele>
        <time>2019-06-20T09:55:37Z</time>
      </trkpt>
      <trkpt lat="44.44385" lon="1.23009">
        <ele>251.52</ele>
        <time>2019-06-20T09:55:52Z</time>
      </trkpt>
      <trkpt lat="44.44369" lon="1.23026">
        <ele>252.96</ele>
        <time>2019-06-20T09:56:07Z</time>
      </trkpt>
      <trkpt lat="44.44353" lon="1.23044">
        <ele>253.44</ele>
        <time>2019-06-20T09:56:23Z</time>
      </trkpt>
      <trkpt lat="44.44335" lon="1.23051">
        <ele>254.89</ele>
        <time>2019-06-20T09:56:36Z</time>
      </trkpt>
      <trkpt lat="44.44316" lon="1.23049">
        <ele>255.85</ele>
        <time>2019-06-20T09:56:47Z</time>
      </trkpt>
      <trkpt lat="44.443" lon="1.23047">
        <ele>257.29</ele>
        <time>2019-06-20T09:57:00Z</time>
      </trkpt>
      <trkpt lat="44.44282" lon="1.23046">
        <ele>258.25</ele>
        <time>2019-06-20T09:57:10Z</time>
      </trkpt>
      <trkpt lat="44.44263" lon="1.23051">
        <ele>259.69</ele>
        <time>2019-06-20T09:57:27Z</time>
      </trkpt>
      <trkpt lat="44.44244" lon="1.23055">
        <ele>259.69</ele>
        <time>2019-06-20T09:57:38Z</time>
      </trkpt>
      <trkpt lat="44.44229" lon="1.23063">
        <ele>260.65</ele>
        <time>2019-06-20T09:58:32Z</time>
      </trkpt>
      <trkpt lat="44.44212" lon="1.23065">
        <ele>260.65</ele>
        <time>2019-06-20T09:58:46Z</time>
      </trkpt>
      <trkpt lat="44.44196" lon="1.2305">
        <ele>258.25</ele>
        <time>2019-06-20T09:58:59Z</time>
      </trkpt>
      <trkpt lat="44.44181" lon="1.23034">
        <ele>256.81</ele>
        <time>2019-06-20T09:59:12Z</time>
      </trkpt>
      <trkpt lat="44.44165" lon="1.23019">
        <ele>256.81</ele>
        <time>2019-06-20T09:59:29Z</time>
      </trkpt>
      <trkpt lat="44.44145" lon="1.23007">
        <ele>256.81</ele>
        <time>2019-06-20T09:59:49Z</time>
      </trkpt>
      <trkpt lat="44.44124" lon="1.23005">
        <ele>258.73</ele>
        <time>2019-06-20T10:00:13Z</time>
      </trkpt>
      <trkpt lat="44.44101" lon="1.23008">
        <ele>259.69</ele>
        <time>2019-06-20T10:00:38Z</time>
      </trkpt>
      <trkpt lat="44.44079" lon="1.23005">
        <ele>260.65</ele>
        <time>2019-06-20T10:00:58Z</time>
      </trkpt>
      <trkpt lat="44.44058" lon="1.22999">
        <ele>261.62</ele>
        <time>2019-06-20T10:01:18Z</time>
      </trkpt>
      <trkpt lat="44.44039" lon="1.22992">
        <ele>261.62</ele>
        <time>2019-06-20T10:01:36Z</time>
      </trkpt>
      <trkpt lat="44.44021" lon="1.22981">
        <ele>261.62</ele>
        <time>2019-06-20T10:02:11Z</time>
      </trkpt>
      <trkpt lat="44.44002" lon="1.22975">
        <ele>259.21</ele>
        <time>2019-06-20T10:02:33Z</time>
      </trkpt>
      <trkpt lat="44.43983" lon="1.2297">
        <ele>258.73</ele>
        <time>2019-06-20T10:02:50Z</time>
      </trkpt>
      <trkpt lat="44.43963" lon="1.22962">
        <ele>257.77</ele>
        <time>2019-06-20T10:03:04Z</time>
      </trkpt>
      <trkpt lat="44.43945" lon="1.22953">
        <ele>257.77</ele>
        <time>2019-06-20T10:03:17Z</time>
      </trkpt>
      <trkpt lat="44.43926" lon="1.22943">
        <ele>257.29</ele>
        <time>2019-06-20T10:03:33Z</time>
      </trkpt>
      <trkpt lat="44.43907" lon="1.22934">
        <ele>257.29</ele>
        <time>2019-06-20T10:03:49Z</time>
      </trkpt>
      <trkpt lat="44.43889" lon="1.22924">
        <ele>258.73</ele>
        <time>2019-06-20T10:04:06Z</time>
      </trkpt>
      <trkpt lat="44.43871" lon="1.22913">
        <ele>260.65</ele>
        <time>2019-06-20T10:04:24Z</time>
      </trkpt>
      <trkpt lat="44.43852" lon="1.229">
        <ele>263.06</ele>
        <time>2019-06-20T10:04:45Z</time>
      </trkpt>
      <trkpt lat="44.43834" lon="1.22889">
        <ele>264.5</ele>
        <time>2019-06-20T10:05:05Z</time>
      </trkpt>
      <trkpt lat="44.43818" lon="1.22902">
        <ele>267.38</ele>
        <time>2019-06-20T10:06:38Z</time>
      </trkpt>
      <trkpt lat="44.4381" lon="1.22927">
        <ele>267.86</ele>
        <time>2019-06-20T10:07:04Z</time>
      </trkpt>
      <trkpt lat="44.43799" lon="1.22951">
        <ele>268.35</ele>
        <time>2019-06-20T10:07:26Z</time>
      </trkpt>
      <trkpt lat="44.4379" lon="1.22976">
        <ele>268.35</ele>
        <time>2019-06-20T10:07:44Z</time>
      </trkpt>
      <trkpt lat="44.43786" lon="1.23003">
        <ele>266.9</ele>
        <time>2019-06-20T10:08:02Z</time>
      </trkpt>
      <trkpt lat="44.43782" lon="1.23033">
        <ele>266.42</ele>
        <time>2019-06-20T10:08:22Z</time>
      </trkpt>
      <trkpt lat="44.43776" lon="1.23062">
        <ele>266.42</ele>
        <time>2019-06-20T10:08:42Z</time>
      </trkpt>
      <trkpt lat="44.43774" lon="1.23092">
        <ele>266.42</ele>
        <time>2019-06-20T10:09:01Z</time>
      </trkpt>
      <trkpt lat="44.43774" lon="1.23126">
        <ele>266.42</ele>
        <time>2019-06-20T10:09:20Z</time>
      </trkpt>
      <trkpt lat="44.43775" lon="1.23158">
        <ele>266.42</ele>
        <time>2019-06-20T10:09:39Z</time>
      </trkpt>
      <trkpt lat="44.43775" lon="1.23191">
        <ele>269.31</ele>
        <time>2019-06-20T10:09:59Z</time>
      </trkpt>
      <trkpt lat="44.43775" lon="1.23222">
        <ele>270.75</ele>
        <time>2019-06-20T10:10:17Z</time>
      </trkpt>
      <trkpt lat="44.43776" lon="1.2325">
        <ele>270.75</ele>
        <time>2019-06-20T10:10:34Z</time>
      </trkpt>
      <trkpt lat="44.43778" lon="1.23276">
        <ele>271.71</ele>
        <time>2019-06-20T10:10:58Z</time>
      </trkpt>
      <trkpt lat="44.43781" lon="1.23303">
        <ele>271.71</ele>
        <time>2019-06-20T10:11:14Z</time>
      </trkpt>
      <trkpt lat="44.43782" lon="1.2333">
        <ele>273.15</ele>
        <time>2019-06-20T10:11:30Z</time>
      </trkpt>
      <trkpt lat="44.43785" lon="1.23354">
        <ele>273.15</ele>
        <time>2019-06-20T10:11:45Z</time>
      </trkpt>
      <trkpt lat="44.43786" lon="1.23381">
        <ele>273.63</ele>
        <time>2019-06-20T10:12:02Z</time>
      </trkpt>
      <trkpt lat="44.4379" lon="1.23407">
        <ele>272.67</ele>
        <time>2019-06-20T10:12:18Z</time>
      </trkpt>
      <trkpt lat="44.43798" lon="1.23429">
        <ele>272.67</ele>
        <time>2019-06-20T10:13:35Z</time>
      </trkpt>
      <trkpt lat="44.43806" lon="1.23429">
        <ele>272.67</ele>
        <time>2019-06-20T10:14:51Z</time>
      </trkpt>
      <trkpt lat="44.43825" lon="1.23414">
        <ele>271.23</ele>
        <time>2019-06-20T10:15:12Z</time>
      </trkpt>
      <trkpt lat="44.43843" lon="1.23398">
        <ele>270.27</ele>
        <time>2019-06-20T10:15:31Z</time>
      </trkpt>
      <trkpt lat="44.43864" lon="1.2339">
        <ele>267.38</ele>
        <time>2019-06-20T10:15:51Z</time>
      </trkpt>
      <trkpt lat="44.43877" lon="1.23398">
        <ele>265.94</ele>
        <time>2019-06-20T10:16:11Z</time>
      </trkpt>
      <trkpt lat="44.43865" lon="1.23415">
        <ele>265.46</ele>
        <time>2019-06-20T10:16:32Z</time>
      </trkpt>
      <trkpt lat="44.43852" lon="1.23436">
        <ele>263.54</ele>
        <time>2019-06-20T10:16:52Z</time>
      </trkpt>
      <trkpt lat="44.4384" lon="1.23456">
        <ele>260.65</ele>
        <time>2019-06-20T10:17:08Z</time>
      </trkpt>
      <trkpt lat="44.43825" lon="1.23474">
        <ele>260.65</ele>
        <time>2019-06-20T10:17:23Z</time>
      </trkpt>
      <trkpt lat="44.43811" lon="1.23491">
        <ele>261.14</ele>
        <time>2019-06-20T10:17:39Z</time>
      </trkpt>
      <trkpt lat="44.43799" lon="1.23513">
        <ele>263.54</ele>
        <time>2019-06-20T10:17:55Z</time>
      </trkpt>
      <trkpt lat="44.43802" lon="1.23536">
        <ele>263.54</ele>
        <time>2019-06-20T10:18:13Z</time>
      </trkpt>
      <trkpt lat="44.43819" lon="1.23551">
        <ele>264.02</ele>
        <time>2019-06-20T10:18:32Z</time>
      </trkpt>
      <trkpt lat="44.4383" lon="1.23576">
        <ele>266.9</ele>
        <time>2019-06-20T10:18:54Z</time>
      </trkpt>
      <trkpt lat="44.43836" lon="1.23607">
        <ele>266.42</ele>
        <time>2019-06-20T10:19:16Z</time>
      </trkpt>
      <trkpt lat="44.43838" lon="1.23639">
        <ele>266.9</ele>
        <time>2019-06-20T10:19:36Z</time>
      </trkpt>
      <trkpt lat="44.43839" lon="1.23673">
        <ele>266.9</ele>
        <time>2019-06-20T10:19:57Z</time>
      </trkpt>
      <trkpt lat="44.43836" lon="1.23703">
        <ele>267.38</ele>
        <time>2019-06-20T10:20:15Z</time>
      </trkpt>
      <trkpt lat="44.43834" lon="1.23731">
        <ele>267.38</ele>
        <time>2019-06-20T10:20:32Z</time>
      </trkpt>
      <trkpt lat="44.43836" lon="1.23759">
        <ele>267.38</ele>
        <time>2019-06-20T10:20:49Z</time>
      </trkpt>
      <trkpt lat="44.43839" lon="1.23784">
        <ele>267.38</ele>
        <time>2019-06-20T10:21:05Z</time>
      </trkpt>
      <trkpt lat="44.43843" lon="1.23811">
        <ele>267.38</ele>
        <time>2019-06-20T10:21:21Z</time>
      </trkpt>
      <trkpt lat="44.43847" lon="1.23837">
        <ele>267.38</ele>
        <time>2019-06-20T10:21:37Z</time>
      </trkpt>
      <trkpt lat="44.4385" lon="1.23862">
        <ele>267.38</ele>
        <time>2019-06-20T10:21:55Z</time>
      </trkpt>
      <trkpt lat="44.43852" lon="1.23889">
        <ele>267.86</ele>
        <time>2019-06-20T10:22:13Z</time>
      </trkpt>
      <trkpt lat="44.43855" lon="1.23916">
        <ele>267.86</ele>
        <time>2019-06-20T10:22:29Z</time>
      </trkpt>
      <trkpt lat="44.43857" lon="1.23942">
        <ele>267.86</ele>
        <time>2019-06-20T10:22:45Z</time>
      </trkpt>
      <trkpt lat="44.43858" lon="1.2397">
        <ele>268.35</ele>
        <time>2019-06-20T10:23:01Z</time>
      </trkpt>
      <trkpt lat="44.43861" lon="1.23997">
        <ele>268.35</ele>
        <time>2019-06-20T10:23:17Z</time>
      </trkpt>
      <trkpt lat="44.43863" lon="1.24025">
        <ele>268.83</ele>
        <time>2019-06-20T10:23:33Z</time>
      </trkpt>
      <trkpt lat="44.43867" lon="1.24048">
        <ele>269.31</ele>
        <time>2019-06-20T10:23:46Z</time>
      </trkpt>
      <trkpt lat="44.43871" lon="1.24071">
        <ele>269.31</ele>
        <time>2019-06-20T10:24:01Z</time>
      </trkpt>
      <trkpt lat="44.43876" lon="1.24096">
        <ele>269.31</ele>
        <time>2019-06-20T10:24:15Z</time>
      </trkpt>
      <trkpt lat="44.43881" lon="1.24119">
        <ele>269.31</ele>
        <time>2019-06-20T10:24:32Z</time>
      </trkpt>
      <trkpt lat="44.43891" lon="1.24144">
        <ele>269.79</ele>
        <time>2019-06-20T10:24:49Z</time>
      </trkpt>
      <trkpt lat="44.43902" lon="1.24164">
        <ele>270.27</ele>
        <time>2019-06-20T10:25:06Z</time>
      </trkpt>
      <trkpt lat="44.43916" lon="1.2418">
        <ele>270.75</ele>
        <time>2019-06-20T10:25:23Z</time>
      </trkpt>
      <trkpt lat="44.43931" lon="1.24199">
        <ele>272.19</ele>
        <time>2019-06-20T10:25:43Z</time>
      </trkpt>
      <trkpt lat="44.43944" lon="1.24219">
        <ele>273.63</ele>
        <time>2019-06-20T10:26:00Z</time>
      </trkpt>
      <trkpt lat="44.43959" lon="1.24232">
        <ele>274.59</ele>
        <time>2019-06-20T10:26:14Z</time>
      </trkpt>
      <trkpt lat="44.43974" lon="1.24247">
        <ele>275.56</ele>
        <time>2019-06-20T10:26:30Z</time>
      </trkpt>
      <trkpt lat="44.4399" lon="1.24259">
        <ele>277</ele>
        <time>2019-06-20T10:26:48Z</time>
      </trkpt>
      <trkpt lat="44.44002" lon="1.24268">
        <ele>277.96</ele>
        <time>2019-06-20T10:28:06Z</time>
      </trkpt>
      <trkpt lat="44.44018" lon="1.24279">
        <ele>278.92</ele>
        <time>2019-06-20T10:28:25Z</time>
      </trkpt>
      <trkpt lat="44.44032" lon="1.24297">
        <ele>279.88</ele>
        <time>2019-06-20T10:28:41Z</time>
      </trkpt>
      <trkpt lat="44.44045" lon="1.24313">
        <ele>281.32</ele>
        <time>2019-06-20T10:28:57Z</time>
      </trkpt>
      <trkpt lat="44.44058" lon="1.24329">
        <ele>282.77</ele>
        <time>2019-06-20T10:29:13Z</time>
      </trkpt>
      <trkpt lat="44.44071" lon="1.24346">
        <ele>283.25</ele>
        <time>2019-06-20T10:29:29Z</time>
      </trkpt>
      <trkpt lat="44.44085" lon="1.24363">
        <ele>284.69</ele>
        <time>2019-06-20T10:29:43Z</time>
      </trkpt>
      <trkpt lat="44.44101" lon="1.24379">
        <ele>286.13</ele>
        <time>2019-06-20T10:30:00Z</time>
      </trkpt>
      <trkpt lat="44.44116" lon="1.24397">
        <ele>287.57</ele>
        <time>2019-06-20T10:30:17Z</time>
      </trkpt>
      <trkpt lat="44.4413" lon="1.24417">
        <ele>288.53</ele>
        <time>2019-06-20T10:30:33Z</time>
      </trkpt>
      <trkpt lat="44.44144" lon="1.24439">
        <ele>289.49</ele>
        <time>2019-06-20T10:30:50Z</time>
      </trkpt>
      <trkpt lat="44.44155" lon="1.2446">
        <ele>290.46</ele>
        <time>2019-06-20T10:31:05Z</time>
      </trkpt>
      <trkpt lat="44.44167" lon="1.2448">
        <ele>290.46</ele>
        <time>2019-06-20T10:31:20Z</time>
      </trkpt>
      <trkpt lat="44.44179" lon="1.24501">
        <ele>290.46</ele>
        <time>2019-06-20T10:31:37Z</time>
      </trkpt>
      <trkpt lat="44.44192" lon="1.24525">
        <ele>290.94</ele>
        <time>2019-06-20T10:31:52Z</time>
      </trkpt>
      <trkpt lat="44.44203" lon="1.24547">
        <ele>291.42</ele>
        <time>2019-06-20T10:32:07Z</time>
      </trkpt>
      <trkpt lat="44.44212" lon="1.24571">
        <ele>291.9</ele>
        <time>2019-06-20T10:32:21Z</time>
      </trkpt>
      <trkpt lat="44.4422" lon="1.24591">
        <ele>291.9</ele>
        <time>2019-06-20T10:32:34Z</time>
      </trkpt>
      <trkpt lat="44.44229" lon="1.24616">
        <ele>291.9</ele>
        <time>2019-06-20T10:32:50Z</time>
      </trkpt>
      <trkpt lat="44.44234" lon="1.24641">
        <ele>292.38</ele>
        <time>2019-06-20T10:33:03Z</time>
      </trkpt>
      <trkpt lat="44.4424" lon="1.24664">
        <ele>292.38</ele>
        <time>2019-06-20T10:33:18Z</time>
      </trkpt>
      <trkpt lat="44.44244" lon="1.24689">
        <ele>292.38</ele>
        <time>2019-06-20T10:33:31Z</time>
      </trkpt>
      <trkpt lat="44.44245" lon="1.24719">
        <ele>291.42</ele>
        <time>2019-06-20T10:33:50Z</time>
      </trkpt>
      <trkpt lat="44.44248" lon="1.24743">
        <ele>290.94</ele>
        <time>2019-06-20T10:33:59Z</time>
      </trkpt>
      <trkpt lat="44.4425" lon="1.24772">
        <ele>290.46</ele>
        <time>2019-06-20T10:34:17Z</time>
      </trkpt>
      <trkpt lat="44.44253" lon="1.24797">
        <ele>290.46</ele>
        <time>2019-06-20T10:34:32Z</time>
      </trkpt>
      <trkpt lat="44.44255" lon="1.24821">
        <ele>290.46</ele>
        <time>2019-06-20T10:34:43Z</time>
      </trkpt>
      <trkpt lat="44.4426" lon="1.24846">
        <ele>290.46</ele>
        <time>2019-06-20T10:34:59Z</time>
      </trkpt>
      <trkpt lat="44.44266" lon="1.24876">
        <ele>290.94</ele>
        <time>2019-06-20T10:35:18Z</time>
      </trkpt>
      <trkpt lat="44.44272" lon="1.24901">
        <ele>292.38</ele>
        <time>2019-06-20T10:35:33Z</time>
      </trkpt>
      <trkpt lat="44.44283" lon="1.2491">
        <ele>293.34</ele>
        <time>2019-06-20T10:36:44Z</time>
      </trkpt>
    </trkseg>
  </trk>
</gpx>